createdAt,value
2022-10-28T00:01:12.069Z,6.30
2022-10-28T00:04:01.125Z,6.87
2022-10-28T00:06:48.059Z,5.63
2022-10-28T00:09:35.032Z,8.13
2022-10-28T00:12:21.967Z,10.03
2022-10-28T00:15:09.301Z,7.40
2022-10-28T00:17:56.482Z,6.63
2022-10-28T00:20:43.443Z,10.97
2022-10-28T00:23:30.517Z,6.93
2022-10-28T00:26:19.908Z,8.07
2022-10-28T00:29:09.824Z,7.50
2022-10-28T00:31:56.716Z,9.47
2022-10-28T00:34:43.684Z,8.57
2022-10-28T00:37:30.662Z,8.30
2022-10-28T00:40:17.618Z,8.40
2022-10-28T00:43:04.580Z,12.13
2022-10-28T00:45:51.555Z,5.93
2022-10-28T00:48:41.244Z,10.77
2022-10-28T00:51:29.704Z,6.10
2022-10-28T00:54:17.893Z,5.80
2022-10-28T00:57:10.745Z,6.93
2022-10-28T00:59:59.782Z,7.20
2022-10-28T01:02:48.792Z,8.87
2022-10-28T01:05:38.757Z,5.43
2022-10-28T01:08:25.694Z,9.17
2022-10-28T01:11:24.727Z,10.20
2022-10-28T01:14:30.285Z,8.63
2022-10-28T01:17:20.100Z,7.40
2022-10-28T01:20:45.267Z,8.03
2022-10-28T01:23:51.660Z,9.43
2022-10-28T01:26:45.997Z,7.40
2022-10-28T01:29:49.445Z,7.47
2022-10-28T01:32:55.695Z,7.90
2022-10-28T01:36:08.674Z,8.00
2022-10-28T01:39:12.210Z,9.43
2022-10-28T01:42:28.721Z,9.43
2022-10-28T01:45:22.737Z,6.80
2022-10-28T01:48:15.807Z,6.27
2022-10-28T01:51:16.931Z,6.77
2022-10-28T01:54:06.978Z,7.07
2022-10-28T01:56:55.610Z,8.03
2022-10-28T01:59:44.615Z,12.13
2022-10-28T02:02:35.641Z,7.43
2022-10-28T02:05:41.316Z,6.30
2022-10-28T02:08:43.251Z,7.60
2022-10-28T02:11:44.391Z,9.43
2022-10-28T02:15:00.373Z,5.57
2022-10-28T02:18:12.874Z,6.47
2022-10-28T02:21:06.360Z,10.07
2022-10-28T02:24:16.084Z,7.63
2022-10-28T02:27:15.296Z,4.73
2022-10-28T02:30:08.851Z,6.43
2022-10-28T02:32:59.346Z,7.53
2022-10-28T02:35:55.958Z,6.97
2022-10-28T02:38:49.504Z,6.40
2022-10-28T02:41:56.475Z,8.17
2022-10-28T02:44:50.175Z,9.53
2022-10-28T02:47:43.786Z,11.87
2022-10-28T02:50:38.528Z,6.80
2022-10-28T02:53:31.789Z,8.10
2022-10-28T02:56:20.865Z,9.70
2022-10-28T02:59:12.273Z,7.57
2022-10-28T03:01:59.291Z,9.63
2022-10-28T03:04:46.285Z,7.53
2022-10-28T03:07:33.479Z,9.77
2022-10-28T03:10:20.456Z,7.47
2022-10-28T03:13:07.366Z,10.30
2022-10-28T03:15:54.253Z,7.50
2022-10-28T03:18:41.187Z,8.80
2022-10-28T03:21:28.103Z,7.17
2022-10-28T03:24:15.005Z,9.83
2022-10-28T03:27:01.935Z,7.30
2022-10-28T03:29:48.846Z,7.83
2022-10-28T03:32:35.836Z,10.00
2022-10-28T03:35:22.821Z,8.07
2022-10-28T03:38:09.782Z,8.27
2022-10-28T03:40:56.684Z,9.10
2022-10-28T03:43:43.812Z,6.43
2022-10-28T03:46:33.575Z,5.97
2022-10-28T03:49:22.900Z,7.97
2022-10-28T03:52:09.852Z,7.37
2022-10-28T03:54:56.789Z,8.13
2022-10-28T03:57:43.735Z,9.37
2022-10-28T04:00:30.678Z,9.00
2022-10-28T04:03:19.264Z,7.10
2022-10-28T04:06:06.424Z,9.37
2022-10-28T04:08:53.322Z,8.30
2022-10-28T04:11:40.259Z,7.17
2022-10-28T04:14:27.148Z,14.70
2022-10-28T04:17:14.117Z,8.23
2022-10-28T04:20:01.024Z,6.73
2022-10-28T04:22:47.932Z,8.00
2022-10-28T04:25:34.852Z,7.87
2022-10-28T04:28:24.253Z,5.77
2022-10-28T04:31:12.127Z,10.20
2022-10-28T04:33:59.069Z,10.40
2022-10-28T04:36:45.967Z,9.87
2022-10-28T04:39:33.316Z,12.90
2022-10-28T04:42:20.271Z,7.03
2022-10-28T04:45:08.107Z,6.00
2022-10-28T04:48:01.715Z,9.60
2022-10-28T04:50:49.304Z,6.30
2022-10-28T04:53:36.285Z,7.37
2022-10-28T04:56:23.327Z,8.40
2022-10-28T04:59:10.272Z,9.10
2022-10-28T05:01:57.360Z,9.17
2022-10-28T05:04:44.342Z,7.57
2022-10-28T05:07:31.215Z,8.13
2022-10-28T05:10:18.291Z,7.30
2022-10-28T05:13:05.380Z,9.23
2022-10-28T05:15:52.378Z,10.17
2022-10-28T05:18:39.318Z,8.73
2022-10-28T05:21:26.351Z,9.50
2022-10-28T05:24:13.354Z,9.30
2022-10-28T05:27:00.793Z,10.60
2022-10-28T05:29:47.939Z,8.67
2022-10-28T05:32:34.985Z,8.83
2022-10-28T05:35:21.912Z,7.10
2022-10-28T05:38:09.039Z,7.77
2022-10-28T05:40:55.943Z,9.30
2022-10-28T05:43:42.868Z,10.40
2022-10-28T05:46:29.828Z,8.97
2022-10-28T05:49:20.278Z,7.43
2022-10-28T05:52:07.199Z,9.13
2022-10-28T05:54:54.097Z,10.70
2022-10-28T05:57:41.035Z,11.50
2022-10-28T06:00:28.074Z,10.67
2022-10-28T06:03:15.053Z,7.20
2022-10-28T06:06:01.961Z,12.50
2022-10-28T06:08:48.845Z,11.57
2022-10-28T06:11:34.434Z,9.30
2022-10-28T06:14:21.429Z,12.13
2022-10-28T06:17:08.346Z,10.87
2022-10-28T06:19:55.277Z,7.73
2022-10-28T06:22:48.866Z,9.33
2022-10-28T06:25:35.771Z,7.77
2022-10-28T06:28:22.993Z,11.30
2022-10-28T06:31:09.903Z,6.93
2022-10-28T06:33:56.817Z,12.30
2022-10-28T06:36:43.716Z,8.97
2022-10-28T06:39:30.685Z,10.07
2022-10-28T06:42:18.248Z,12.37
2022-10-28T06:45:05.896Z,8.27
2022-10-28T06:47:59.009Z,10.20
2022-10-28T06:50:45.943Z,8.90
2022-10-28T06:53:32.854Z,8.67
2022-10-28T06:56:19.823Z,10.50
2022-10-28T06:59:07.592Z,11.17
2022-10-28T07:01:54.668Z,11.93
2022-10-28T07:04:42.151Z,13.90
2022-10-28T07:07:29.082Z,11.37
2022-10-28T07:10:16.175Z,10.60
2022-10-28T07:13:03.358Z,10.40
2022-10-28T07:15:54.505Z,11.87
2022-10-28T07:18:41.405Z,10.03
2022-10-28T07:21:29.723Z,11.43
2022-10-28T07:24:16.741Z,7.97
2022-10-28T07:27:03.914Z,9.70
2022-10-28T07:29:50.821Z,9.40
2022-10-28T07:32:37.754Z,12.70
2022-10-28T07:35:24.687Z,11.23
2022-10-28T07:38:11.847Z,11.47
2022-10-28T07:40:58.835Z,8.37
2022-10-28T07:43:45.791Z,19.03
2022-10-28T07:46:32.733Z,19.07
2022-10-28T07:49:19.653Z,22.17
2022-10-28T07:52:06.558Z,15.33
2022-10-28T07:54:53.529Z,14.37
2022-10-28T07:57:40.484Z,14.07
2022-10-28T08:00:27.390Z,11.30
2022-10-28T08:03:14.352Z,12.30
2022-10-28T08:06:03.144Z,11.40
2022-10-28T08:08:54.709Z,12.40
2022-10-28T08:11:41.615Z,9.67
2022-10-28T08:14:28.507Z,11.57
2022-10-28T08:17:15.674Z,8.20
2022-10-28T08:20:02.659Z,6.57
2022-10-28T08:22:49.654Z,12.37
2022-10-28T08:25:37.114Z,6.73
2022-10-28T08:28:24.321Z,7.03
2022-10-28T08:31:12.357Z,8.77
2022-10-28T08:33:59.569Z,10.63
2022-10-28T08:36:46.571Z,7.97
2022-10-28T08:39:33.526Z,8.27
2022-10-28T08:42:44.450Z,5.80
2022-10-28T08:45:56.320Z,6.17
2022-10-28T08:48:43.512Z,7.68
2022-10-28T08:51:57.484Z,7.93
2022-10-28T08:54:53.282Z,10.27
2022-10-28T08:58:09.086Z,6.90
2022-10-28T09:00:59.811Z,10.55
2022-10-28T09:03:50.807Z,7.43
2022-10-28T09:06:37.715Z,6.80
2022-10-28T09:09:24.854Z,9.63
2022-10-28T09:12:32.741Z,6.97
2022-10-28T09:15:48.972Z,9.85
2022-10-28T09:18:57.434Z,12.40
2022-10-28T09:24:59.393Z,7.22
2022-10-28T09:28:04.701Z,5.18
2022-10-28T09:31:09.421Z,5.55
2022-10-28T09:34:17.605Z,6.43
2022-10-28T09:40:27.301Z,6.22
2022-10-28T09:43:22.939Z,7.63
2022-10-28T09:46:15.803Z,6.95
2022-10-28T09:52:17.707Z,6.45
2022-10-28T09:55:16.294Z,9.77
2022-10-28T10:01:09.446Z,7.55
2022-10-28T10:03:56.398Z,7.00
2022-10-28T10:06:44.019Z,7.10
2022-10-28T10:09:33.045Z,6.25
2022-10-28T10:12:20.311Z,6.13
2022-10-28T10:15:14.771Z,5.35
2022-10-28T10:18:03.851Z,7.70
2022-10-28T10:20:57.423Z,7.45
2022-10-28T10:26:48.900Z,8.90
2022-10-28T10:29:37.164Z,10.88
2022-10-28T10:42:01.156Z,6.63
2022-10-28T10:48:20.574Z,8.35
2022-10-28T10:51:25.118Z,8.93
2022-10-28T10:54:15.635Z,8.25
2022-10-28T11:00:23.362Z,6.85
2022-10-28T11:03:27.597Z,9.30
2022-10-28T11:06:25.840Z,7.97
2022-10-28T11:09:35.186Z,9.07
2022-10-28T11:12:35.101Z,6.53
2022-10-28T11:15:24.050Z,8.68
2022-10-28T11:24:59.460Z,8.55
2022-10-28T11:27:55.352Z,9.88
2022-10-28T11:31:15.111Z,6.80
2022-10-28T11:34:24.558Z,13.07
2022-10-28T11:37:30.729Z,7.40
2022-10-28T11:40:30.955Z,7.32
2022-10-28T11:43:43.607Z,6.90
2022-10-28T11:47:04.203Z,10.90
2022-10-28T11:50:29.751Z,12.68
2022-10-28T11:56:47.796Z,11.88
2022-10-28T11:59:56.475Z,7.82
2022-10-28T12:03:08.493Z,9.57
2022-10-28T12:06:13.738Z,12.48
2022-10-28T12:12:33.691Z,9.73
2022-10-28T12:15:58.292Z,10.15
2022-10-28T12:22:25.894Z,8.15
2022-10-28T12:25:23.322Z,10.95
2022-10-28T12:28:25.545Z,9.27
2022-10-28T12:31:28.814Z,8.50
2022-10-28T12:38:10.791Z,10.15
2022-10-28T12:41:21.613Z,8.70
2022-10-28T12:44:17.843Z,11.35
2022-10-28T12:47:24.227Z,9.18
2022-10-28T12:50:38.945Z,9.98
2022-10-28T12:53:38.508Z,10.60
2022-10-28T13:00:28.528Z,10.93
2022-10-28T13:03:16.246Z,8.80
2022-10-28T13:06:46.829Z,10.18
2022-10-28T13:09:54.608Z,11.45
2022-10-28T13:13:14.596Z,10.38
2022-10-28T13:19:37.354Z,13.93
2022-10-28T13:25:52.954Z,11.82
2022-10-28T13:28:49.179Z,11.15
2022-10-28T13:31:41.403Z,11.25
2022-10-28T13:40:57.570Z,11.93
2022-10-28T13:43:50.614Z,10.63
2022-10-28T13:46:59.210Z,10.57
2022-10-28T13:50:08.458Z,12.90
2022-10-28T13:53:23.709Z,6.38
2022-10-28T13:56:21.864Z,9.50
2022-10-28T14:02:40.258Z,11.18
2022-10-28T14:05:47.454Z,13.57
2022-10-28T14:08:39.804Z,15.18
2022-10-28T14:11:32.520Z,12.23
2022-10-28T14:14:20.697Z,13.32
2022-10-28T14:17:20.387Z,10.00
2022-10-28T14:20:34.976Z,15.05
2022-10-28T14:23:21.923Z,11.95
2022-10-28T14:26:09.031Z,9.48
2022-10-28T14:28:56.277Z,11.32
2022-10-28T14:31:44.080Z,11.55
2022-10-28T14:38:08.407Z,9.45
2022-10-28T14:41:23.651Z,14.18
2022-10-28T14:50:47.788Z,9.35
2022-10-28T14:53:36.219Z,10.95
2022-10-28T14:56:26.690Z,10.07
2022-10-28T14:59:30.243Z,10.00
2022-10-28T15:05:30.481Z,13.98
2022-10-28T15:11:23.578Z,9.73
2022-10-28T15:14:26.058Z,11.00
2022-10-28T15:17:12.997Z,10.25
2022-10-28T15:20:01.149Z,15.45
2022-10-28T15:22:48.239Z,12.80
2022-10-28T15:28:41.033Z,8.50
2022-10-28T15:31:28.206Z,7.03
2022-10-28T15:37:30.807Z,9.93
2022-10-28T15:46:36.544Z,14.02
2022-10-28T15:49:34.972Z,10.68
2022-10-28T15:52:32.059Z,9.35
2022-10-28T15:55:19.562Z,9.23
2022-10-28T16:01:31.621Z,14.27
2022-10-28T16:04:18.603Z,13.73
2022-10-28T16:07:08.302Z,9.63
2022-10-28T16:09:55.976Z,9.88
2022-10-28T16:12:45.272Z,11.30
2022-10-28T16:18:46.518Z,9.57
2022-10-28T16:21:35.882Z,15.52
2022-10-28T16:27:32.500Z,15.38
2022-10-28T16:30:19.788Z,11.60
2022-10-28T16:33:09.686Z,9.65
2022-10-28T16:35:56.712Z,12.10
2022-10-28T16:38:43.869Z,9.43
2022-10-28T16:41:31.589Z,7.65
2022-10-28T16:47:29.093Z,10.55
2022-10-28T16:50:16.942Z,11.77
2022-10-28T16:53:03.943Z,9.15
2022-10-28T16:55:51.530Z,11.13
2022-10-28T17:01:44.462Z,11.20
2022-10-28T17:04:31.491Z,11.65
2022-10-28T17:07:18.636Z,11.52
2022-10-28T17:10:07.131Z,13.80
2022-10-28T17:12:54.935Z,7.90
2022-10-28T17:18:49.688Z,12.98
2022-10-28T17:21:36.648Z,11.98
2022-10-28T17:24:23.573Z,10.90
2022-10-28T17:27:10.598Z,8.80
2022-10-28T17:29:57.771Z,9.90
2022-10-28T17:32:45.782Z,11.82
2022-10-28T17:35:32.724Z,10.95
2022-10-28T17:38:19.772Z,11.43
2022-10-28T17:41:06.934Z,10.80
2022-10-28T17:43:54.923Z,15.32
2022-10-28T17:46:41.849Z,13.98
2022-10-28T17:49:29.811Z,9.25
2022-10-28T17:52:16.828Z,10.27
2022-10-28T17:55:04.153Z,9.57
2022-10-28T17:57:51.112Z,8.43
2022-10-28T18:00:38.203Z,12.82
2022-10-28T18:03:25.858Z,11.23
2022-10-28T18:06:13.288Z,12.95
2022-10-28T18:09:00.221Z,11.80
2022-10-28T18:14:51.675Z,14.18
2022-10-28T18:17:38.884Z,14.30
2022-10-28T18:20:25.976Z,20.58
2022-10-28T18:23:12.910Z,17.17
2022-10-28T18:26:01.537Z,15.33
2022-10-28T18:28:48.986Z,14.65
2022-10-28T18:31:37.735Z,14.57
2022-10-28T18:34:25.010Z,11.20
2022-10-28T18:37:12.579Z,12.95
2022-10-28T18:39:59.980Z,13.73
2022-10-28T18:42:47.286Z,13.07
2022-10-28T18:45:34.609Z,11.88
2022-10-28T18:48:21.703Z,14.35
2022-10-28T18:51:12.241Z,13.45
2022-10-28T18:53:59.507Z,14.25
2022-10-28T18:56:47.974Z,18.98
2022-10-28T18:59:43.262Z,14.18
2022-10-28T19:02:46.338Z,10.40
2022-10-28T19:05:34.990Z,11.77
2022-10-28T19:08:22.064Z,14.18
2022-10-28T19:11:11.626Z,15.30
2022-10-28T19:14:01.312Z,13.90
2022-10-28T19:16:48.419Z,14.10
2022-10-28T19:19:38.485Z,17.45
2022-10-28T19:22:27.468Z,12.45
2022-10-28T19:25:14.926Z,20.55
2022-10-28T19:28:01.943Z,10.70
2022-10-28T19:30:49.337Z,12.73
2022-10-28T19:33:40.101Z,14.63
2022-10-28T19:36:30.375Z,12.70
2022-10-28T19:39:17.354Z,13.35
2022-10-28T19:42:04.389Z,13.30
2022-10-28T19:44:51.421Z,14.88
2022-10-28T19:47:38.678Z,17.50
2022-10-28T19:50:25.645Z,15.85
2022-10-28T19:53:12.585Z,16.27
2022-10-28T19:56:02.039Z,20.15
2022-10-28T19:58:53.293Z,18.50
2022-10-28T20:01:40.874Z,17.25
2022-10-28T20:10:36.905Z,15.18
2022-10-28T20:13:23.838Z,15.07
2022-10-28T20:22:22.271Z,19.13
2022-10-28T20:25:09.659Z,18.02
2022-10-28T20:31:07.371Z,29.23
2022-10-28T20:33:56.811Z,16.35
2022-10-28T20:36:46.608Z,17.05
2022-10-28T20:39:33.578Z,21.45
2022-10-28T20:42:20.532Z,19.95
2022-10-28T20:45:07.888Z,14.85
2022-10-28T20:47:54.872Z,16.90
2022-10-28T20:50:50.122Z,14.05
2022-10-28T20:53:37.876Z,17.70
2022-10-28T20:56:27.527Z,18.05
2022-10-28T20:59:14.480Z,16.13
2022-10-28T21:02:01.631Z,17.05
2022-10-28T21:04:48.688Z,17.70
2022-10-28T21:10:41.071Z,17.63
2022-10-28T21:16:32.558Z,21.48
2022-10-28T21:19:19.593Z,17.27
2022-10-28T21:25:11.113Z,17.08
2022-10-28T21:27:59.688Z,16.63
2022-10-28T21:30:46.676Z,14.93
2022-10-28T21:33:35.247Z,17.38
2022-10-28T21:39:27.284Z,18.42
2022-10-28T21:42:14.256Z,19.25
2022-10-28T21:45:01.371Z,18.48
2022-10-28T21:47:48.312Z,13.95
2022-10-28T21:53:40.248Z,20.63
2022-10-28T21:56:27.406Z,18.58
2022-10-28T21:59:14.372Z,15.93
2022-10-28T22:02:03.839Z,15.82
2022-10-28T22:04:51.003Z,20.42
2022-10-28T22:07:37.990Z,20.75
2022-10-28T22:10:24.951Z,20.48
2022-10-28T22:13:12.200Z,23.13
2022-10-28T22:16:01.186Z,17.23
2022-10-28T22:18:48.136Z,15.15
2022-10-28T22:27:49.289Z,14.23
2022-10-28T22:30:36.221Z,18.30
2022-10-28T22:33:23.191Z,19.92
2022-10-28T22:36:16.145Z,22.90
2022-10-28T22:39:03.239Z,22.23
2022-10-28T22:41:50.218Z,15.48
2022-10-28T22:44:37.263Z,26.92
2022-10-28T22:47:24.185Z,20.17
2022-10-28T22:50:12.061Z,18.17
2022-10-28T22:56:04.203Z,21.30
2022-10-28T22:59:01.746Z,18.03
2022-10-28T23:01:48.856Z,19.63
2022-10-28T23:04:35.898Z,17.37
2022-10-28T23:07:22.933Z,22.30
2022-10-28T23:10:10.038Z,16.98
2022-10-28T23:12:58.366Z,15.35
2022-10-28T23:15:45.429Z,22.40
2022-10-28T23:18:32.580Z,21.83
2022-10-28T23:21:22.705Z,14.60
2022-10-28T23:24:09.769Z,17.63
2022-10-28T23:29:48.665Z,15.63
2022-10-28T23:32:35.710Z,18.33
2022-10-28T23:35:22.647Z,14.77
2022-10-28T23:38:11.823Z,14.93
2022-10-28T23:41:01.391Z,21.00
2022-10-28T23:43:49.347Z,17.80
2022-10-28T23:46:37.580Z,19.47
2022-10-28T23:49:24.723Z,16.20
2022-10-28T23:52:11.755Z,19.77
2022-10-28T23:54:58.754Z,14.80
